TKJ3063 LTFJ-LTBJ
Flight info
| Callsign | TKJ3063 |
|---|---|
| Flight time | 0h 57m |
| Altitude | 30000 |
| Route | IVGUS UM19 OVZOK |
| Aircraft | B738/M-SDE2E3FGHIRWXY/LB1 |
Departure
| Time | 2026-04-29 20:45 |
|---|---|
| Airport | Istanbul Sabiha Gökçen International Airport (LTFJ) |
Arrival
| Time | 2026-04-29 21:43 |
|---|---|
| Airport | Adnan Menderes International Airport (LTBJ) |
| Time | Latitude | Longitude | Altitude | Speed | Heading |
|---|---|---|---|---|---|
| 2026-04-29 20:07 | 40.90540 | 29.31386 | 320 ft | 0 kts | 334° |
| 2026-04-29 20:30 | 40.90525 | 29.31395 | 320 ft | 3 kts | 334° |
| 2026-04-29 20:30 | 40.90508 | 29.31406 | 318 ft | 3 kts | 334° |
| 2026-04-29 20:30 | 40.90492 | 29.31417 | 318 ft | 3 kts | 334° |
| 2026-04-29 20:31 | 40.90475 | 29.31427 | 320 ft | 3 kts | 334° |
| 2026-04-29 20:31 | 40.90459 | 29.31438 | 316 ft | 3 kts | 334° |
| 2026-04-29 20:31 | 40.90443 | 29.31448 | 318 ft | 3 kts | 334° |
| 2026-04-29 20:31 | 40.90433 | 29.31455 | 320 ft | 0 kts | 334° |
| 2026-04-29 20:35 | 40.90433 | 29.31454 | 320 ft | 0 kts | 334° |
| 2026-04-29 20:36 | 40.90438 | 29.31448 | 318 ft | 2 kts | 318° |
| 2026-04-29 20:36 | 40.90444 | 29.31431 | 320 ft | 2 kts | 281° |
| 2026-04-29 20:36 | 40.90438 | 29.31407 | 319 ft | 3 kts | 244° |
| 2026-04-29 20:36 | 40.90425 | 29.31371 | 320 ft | 6 kts | 244° |
| 2026-04-29 20:37 | 40.90403 | 29.31309 | 320 ft | 9 kts | 244° |
| 2026-04-29 20:37 | 40.90370 | 29.31220 | 320 ft | 12 kts | 243° |
| 2026-04-29 20:37 | 40.90329 | 29.31110 | 320 ft | 13 kts | 245° |
| 2026-04-29 20:37 | 40.90297 | 29.31022 | 318 ft | 9 kts | 244° |
| 2026-04-29 20:38 | 40.90269 | 29.30945 | 320 ft | 9 kts | 244° |
| 2026-04-29 20:38 | 40.90232 | 29.30880 | 320 ft | 9 kts | 204° |
| 2026-04-29 20:38 | 40.90174 | 29.30898 | 320 ft | 9 kts | 156° |
| 2026-04-29 20:38 | 40.90119 | 29.30927 | 320 ft | 8 kts | 168° |
| 2026-04-29 20:39 | 40.90065 | 29.30907 | 320 ft | 8 kts | 220° |
| 2026-04-29 20:39 | 40.90036 | 29.30840 | 320 ft | 9 kts | 244° |
| 2026-04-29 20:39 | 40.90005 | 29.30755 | 319 ft | 12 kts | 244° |
| 2026-04-29 20:39 | 40.89965 | 29.30646 | 320 ft | 15 kts | 244° |
| 2026-04-29 20:40 | 40.89917 | 29.30514 | 320 ft | 17 kts | 244° |
| 2026-04-29 20:40 | 40.89861 | 29.30363 | 319 ft | 19 kts | 244° |
| 2026-04-29 20:40 | 40.89800 | 29.30194 | 320 ft | 21 kts | 244° |
| 2026-04-29 20:40 | 40.89733 | 29.30014 | 320 ft | 22 kts | 244° |
| 2026-04-29 20:41 | 40.89667 | 29.29837 | 320 ft | 21 kts | 244° |
| 2026-04-29 20:41 | 40.89604 | 29.29664 | 319 ft | 21 kts | 244° |
| 2026-04-29 20:41 | 40.89550 | 29.29516 | 320 ft | 12 kts | 244° |
| 2026-04-29 20:41 | 40.89515 | 29.29420 | 320 ft | 11 kts | 243° |
| 2026-04-29 20:42 | 40.89480 | 29.29327 | 320 ft | 11 kts | 244° |
| 2026-04-29 20:42 | 40.89448 | 29.29268 | 320 ft | 7 kts | 215° |
| 2026-04-29 20:42 | 40.89399 | 29.29255 | 320 ft | 7 kts | 172° |
| 2026-04-29 20:42 | 40.89353 | 29.29278 | 319 ft | 7 kts | 154° |
| 2026-04-29 20:43 | 40.89312 | 29.29310 | 320 ft | 7 kts | 135° |
| 2026-04-29 20:43 | 40.89294 | 29.29367 | 319 ft | 7 kts | 96° |
| 2026-04-29 20:43 | 40.89305 | 29.29426 | 321 ft | 7 kts | 64° |
| 2026-04-29 20:43 | 40.89313 | 29.29447 | 321 ft | 0 kts | 64° |
| 2026-04-29 20:44 | 40.89373 | 29.29610 | 319 ft | 55 kts | 64° |
| 2026-04-29 20:44 | 40.89652 | 29.30367 | 321 ft | 125 kts | 64° |
| 2026-04-29 20:45 | 40.90154 | 29.31606 | 451 ft | 171 kts | 59° |
| 2026-04-29 20:45 | 40.90733 | 29.33017 | 1215 ft | 177 kts | 63° |
| 2026-04-29 20:45 | 40.91270 | 29.34512 | 2100 ft | 181 kts | 67° |
| 2026-04-29 20:45 | 40.91744 | 29.36103 | 2895 ft | 191 kts | 63° |
| 2026-04-29 20:46 | 40.92453 | 29.37722 | 3147 ft | 214 kts | 65° |
| 2026-04-29 20:46 | 40.92641 | 29.39713 | 3437 ft | 229 kts | 102° |
| 2026-04-29 20:46 | 40.92061 | 29.41739 | 3807 ft | 244 kts | 113° |
| 2026-04-29 20:46 | 40.91424 | 29.43922 | 4118 ft | 263 kts | 117° |
| 2026-04-29 20:47 | 40.90132 | 29.45640 | 4751 ft | 272 kts | 153° |
| 2026-04-29 20:47 | 40.88353 | 29.46528 | 5478 ft | 276 kts | 160° |
| 2026-04-29 20:47 | 40.86540 | 29.47452 | 6159 ft | 281 kts | 158° |
| 2026-04-29 20:47 | 40.84670 | 29.48137 | 6721 ft | 280 kts | 179° |
| 2026-04-29 20:48 | 40.82767 | 29.47677 | 7172 ft | 282 kts | 205° |
| 2026-04-29 20:48 | 40.81154 | 29.46293 | 7851 ft | 280 kts | 224° |
| 2026-04-29 20:48 | 40.79700 | 29.44534 | 8603 ft | 281 kts | 226° |
| 2026-04-29 20:48 | 40.78274 | 29.42750 | 9309 ft | 284 kts | 226° |
| 2026-04-29 20:49 | 40.76831 | 29.40956 | 10044 ft | 286 kts | 226° |
| 2026-04-29 20:49 | 40.75353 | 29.39139 | 10436 ft | 300 kts | 226° |
| 2026-04-29 20:49 | 40.73789 | 29.37230 | 10592 ft | 321 kts | 225° |
| 2026-04-29 20:49 | 40.72088 | 29.35134 | 10740 ft | 340 kts | 229° |
| 2026-04-29 20:50 | 40.70827 | 29.32512 | 10967 ft | 349 kts | 252° |
| 2026-04-29 20:50 | 40.70449 | 29.29367 | 11492 ft | 351 kts | 273° |
| 2026-04-29 20:50 | 40.70942 | 29.26220 | 12146 ft | 352 kts | 287° |
| 2026-04-29 20:50 | 40.71720 | 29.23149 | 12782 ft | 355 kts | 288° |
| 2026-04-29 20:51 | 40.72519 | 29.20046 | 13389 ft | 360 kts | 288° |
| 2026-04-29 20:51 | 40.73303 | 29.16903 | 14029 ft | 363 kts | 287° |
| 2026-04-29 20:51 | 40.74080 | 29.13723 | 14628 ft | 366 kts | 287° |
| 2026-04-29 20:51 | 40.74856 | 29.10510 | 15250 ft | 369 kts | 287° |
| 2026-04-29 20:52 | 40.75635 | 29.07271 | 15872 ft | 372 kts | 287° |
| 2026-04-29 20:52 | 40.76419 | 29.04013 | 16480 ft | 375 kts | 287° |
| 2026-04-29 20:52 | 40.77139 | 29.00690 | 17054 ft | 378 kts | 279° |
| 2026-04-29 20:52 | 40.77410 | 28.97229 | 17652 ft | 381 kts | 273° |
| 2026-04-29 20:53 | 40.77557 | 28.93734 | 18244 ft | 384 kts | 273° |
| 2026-04-29 20:53 | 40.77710 | 28.90200 | 18762 ft | 387 kts | 274° |
| 2026-04-29 20:53 | 40.77893 | 28.86648 | 19298 ft | 389 kts | 274° |
| 2026-04-29 20:53 | 40.78094 | 28.83086 | 19828 ft | 391 kts | 274° |
| 2026-04-29 20:54 | 40.78509 | 28.75901 | 20856 ft | 395 kts | 274° |
| 2026-04-29 20:54 | 40.78715 | 28.72277 | 21354 ft | 397 kts | 274° |
| 2026-04-29 20:54 | 40.78921 | 28.68630 | 21834 ft | 399 kts | 274° |
| 2026-04-29 20:55 | 40.79127 | 28.64962 | 22301 ft | 402 kts | 274° |
| 2026-04-29 20:55 | 40.79333 | 28.61276 | 22763 ft | 404 kts | 274° |
| 2026-04-29 20:55 | 40.79464 | 28.57567 | 23219 ft | 407 kts | 270° |
| 2026-04-29 20:55 | 40.79382 | 28.53822 | 23669 ft | 409 kts | 268° |
| 2026-04-29 20:56 | 40.79211 | 28.50062 | 24043 ft | 411 kts | 267° |
| 2026-04-29 20:56 | 40.79029 | 28.46347 | 24424 ft | 412 kts | 267° |
| 2026-04-29 20:56 | 40.78858 | 28.42557 | 24804 ft | 414 kts | 268° |
| 2026-04-29 20:56 | 40.78704 | 28.38762 | 25169 ft | 415 kts | 268° |
| 2026-04-29 20:57 | 40.78562 | 28.34951 | 25519 ft | 417 kts | 268° |
| 2026-04-29 20:57 | 40.78423 | 28.31124 | 25872 ft | 418 kts | 268° |
| 2026-04-29 20:57 | 40.78282 | 28.27278 | 26218 ft | 420 kts | 268° |
| 2026-04-29 20:57 | 40.78175 | 28.23438 | 26655 ft | 418 kts | 271° |
| 2026-04-29 20:58 | 40.78245 | 28.19621 | 27189 ft | 414 kts | 274° |
| 2026-04-29 20:58 | 40.78401 | 28.15838 | 27711 ft | 412 kts | 274° |
| 2026-04-29 20:58 | 40.78572 | 28.12069 | 28174 ft | 410 kts | 274° |
| 2026-04-29 20:58 | 40.78732 | 28.08307 | 28611 ft | 410 kts | 274° |
| 2026-04-29 20:59 | 40.78874 | 28.04563 | 29092 ft | 408 kts | 274° |
| 2026-04-29 20:59 | 40.79002 | 28.00831 | 29592 ft | 405 kts | 274° |
| 2026-04-29 20:59 | 40.79124 | 27.97125 | 30069 ft | 404 kts | 274° |
| 2026-04-29 21:00 | 40.79362 | 27.89676 | 30118 ft | 405 kts | 274° |
| 2026-04-29 21:00 | 40.79502 | 27.82314 | 30127 ft | 403 kts | 271° |
| 2026-04-29 21:00 | 40.79149 | 27.78651 | 30120 ft | 406 kts | 255° |
| 2026-04-29 21:01 | 40.78004 | 27.75256 | 30129 ft | 412 kts | 242° |
| 2026-04-29 21:01 | 40.76250 | 27.72245 | 30132 ft | 418 kts | 229° |
| 2026-04-29 21:01 | 40.73929 | 27.69883 | 30127 ft | 427 kts | 215° |
| 2026-04-29 21:02 | 40.68685 | 27.66169 | 30118 ft | 429 kts | 212° |
| 2026-04-29 21:02 | 40.63406 | 27.62478 | 30117 ft | 430 kts | 213° |
| 2026-04-29 21:03 | 40.58101 | 27.58810 | 30102 ft | 435 kts | 204° |
| 2026-04-29 21:03 | 40.55119 | 27.57973 | 30123 ft | 446 kts | 186° |
| 2026-04-29 21:03 | 40.51999 | 27.58177 | 30136 ft | 451 kts | 179° |
| 2026-04-29 21:04 | 40.45747 | 27.59099 | 30112 ft | 453 kts | 178° |
| 2026-04-29 21:04 | 40.39479 | 27.59929 | 30113 ft | 453 kts | 179° |
| 2026-04-29 21:05 | 40.33215 | 27.60202 | 30114 ft | 446 kts | 191° |
| 2026-04-29 21:05 | 40.27090 | 27.59008 | 30109 ft | 445 kts | 193° |
| 2026-04-29 21:06 | 40.21001 | 27.57751 | 30107 ft | 446 kts | 193° |
| 2026-04-29 21:06 | 40.14858 | 27.56536 | 30116 ft | 447 kts | 193° |
| 2026-04-29 21:07 | 40.08696 | 27.55352 | 30107 ft | 447 kts | 192° |
| 2026-04-29 21:07 | 40.03585 | 27.54377 | 30112 ft | 446 kts | 192° |
| 2026-04-29 21:08 | 39.96393 | 27.53005 | 30113 ft | 447 kts | 192° |
| 2026-04-29 21:08 | 39.90243 | 27.51832 | 30122 ft | 446 kts | 192° |
| 2026-04-29 21:09 | 39.84101 | 27.50663 | 30120 ft | 446 kts | 192° |
| 2026-04-29 21:09 | 39.77963 | 27.49497 | 30121 ft | 445 kts | 192° |
| 2026-04-29 21:09 | 39.74980 | 27.48933 | 30092 ft | 432 kts | 192° |
| 2026-04-29 21:10 | 39.72042 | 27.48379 | 30118 ft | 424 kts | 192° |
| 2026-04-29 21:10 | 39.66232 | 27.47280 | 30106 ft | 422 kts | 192° |
| 2026-04-29 21:10 | 39.63320 | 27.46731 | 29746 ft | 422 kts | 192° |
| 2026-04-29 21:11 | 39.60437 | 27.46191 | 29372 ft | 416 kts | 192° |
| 2026-04-29 21:11 | 39.57593 | 27.45659 | 28994 ft | 410 kts | 192° |
| 2026-04-29 21:11 | 39.54782 | 27.45132 | 28565 ft | 406 kts | 192° |
| 2026-04-29 21:11 | 39.51991 | 27.44609 | 28145 ft | 403 kts | 192° |
| 2026-04-29 21:12 | 39.49228 | 27.44091 | 27728 ft | 399 kts | 192° |
| 2026-04-29 21:12 | 39.46491 | 27.43577 | 27322 ft | 396 kts | 192° |
| 2026-04-29 21:12 | 39.43779 | 27.43069 | 26914 ft | 393 kts | 192° |
| 2026-04-29 21:12 | 39.41081 | 27.42565 | 26510 ft | 390 kts | 192° |
| 2026-04-29 21:13 | 39.38402 | 27.42065 | 26116 ft | 388 kts | 192° |
| 2026-04-29 21:13 | 39.35769 | 27.41437 | 25755 ft | 382 kts | 198° |
| 2026-04-29 21:13 | 39.33221 | 27.40542 | 25388 ft | 377 kts | 200° |
| 2026-04-29 21:13 | 39.30717 | 27.39554 | 24997 ft | 375 kts | 201° |
| 2026-04-29 21:14 | 39.28233 | 27.38555 | 24619 ft | 373 kts | 201° |
| 2026-04-29 21:14 | 39.25787 | 27.37585 | 24240 ft | 372 kts | 201° |
| 2026-04-29 21:14 | 39.23317 | 27.36626 | 23855 ft | 370 kts | 200° |
| 2026-04-29 21:14 | 39.20852 | 27.35685 | 23429 ft | 369 kts | 200° |
| 2026-04-29 21:15 | 39.18399 | 27.34759 | 22985 ft | 367 kts | 200° |
| 2026-04-29 21:15 | 39.15952 | 27.33843 | 22577 ft | 364 kts | 200° |
| 2026-04-29 21:15 | 39.13530 | 27.32939 | 22184 ft | 361 kts | 200° |
| 2026-04-29 21:15 | 39.11124 | 27.32043 | 21806 ft | 358 kts | 200° |
| 2026-04-29 21:16 | 39.09539 | 27.31453 | 21553 ft | 357 kts | 200° |
| 2026-04-29 21:16 | 39.07165 | 27.30570 | 21170 ft | 354 kts | 200° |
| 2026-04-29 21:16 | 39.04806 | 27.29692 | 20802 ft | 352 kts | 199° |
| 2026-04-29 21:16 | 39.02462 | 27.28821 | 20434 ft | 350 kts | 199° |
| 2026-04-29 21:17 | 38.99347 | 27.27663 | 19937 ft | 347 kts | 199° |
| 2026-04-29 21:17 | 38.97812 | 27.27093 | 19699 ft | 346 kts | 199° |
| 2026-04-29 21:17 | 38.95500 | 27.26236 | 19338 ft | 345 kts | 199° |
| 2026-04-29 21:17 | 38.93199 | 27.25381 | 18969 ft | 344 kts | 199° |
| 2026-04-29 21:18 | 38.90904 | 27.24531 | 18603 ft | 342 kts | 199° |
| 2026-04-29 21:18 | 38.88616 | 27.23685 | 18222 ft | 341 kts | 199° |
| 2026-04-29 21:18 | 38.86280 | 27.23149 | 17797 ft | 344 kts | 184° |
| 2026-04-29 21:18 | 38.83895 | 27.23163 | 17413 ft | 343 kts | 181° |
| 2026-04-29 21:19 | 38.81514 | 27.23236 | 17036 ft | 341 kts | 181° |
| 2026-04-29 21:19 | 38.79150 | 27.23303 | 16705 ft | 338 kts | 181° |
| 2026-04-29 21:19 | 38.76803 | 27.23351 | 16338 ft | 336 kts | 181° |
| 2026-04-29 21:19 | 38.74504 | 27.23382 | 15993 ft | 334 kts | 182° |
| 2026-04-29 21:20 | 38.72203 | 27.23406 | 15819 ft | 326 kts | 182° |
| 2026-04-29 21:20 | 38.69961 | 27.23428 | 15670 ft | 318 kts | 182° |
| 2026-04-29 21:20 | 38.67775 | 27.23410 | 15500 ft | 309 kts | 188° |
| 2026-04-29 21:20 | 38.65692 | 27.22833 | 15196 ft | 305 kts | 198° |
| 2026-04-29 21:21 | 38.63666 | 27.22057 | 14902 ft | 303 kts | 199° |
| 2026-04-29 21:21 | 38.61647 | 27.21290 | 14602 ft | 303 kts | 198° |
| 2026-04-29 21:21 | 38.59626 | 27.20548 | 14287 ft | 302 kts | 198° |
| 2026-04-29 21:21 | 38.57597 | 27.19821 | 13980 ft | 302 kts | 197° |
| 2026-04-29 21:22 | 38.55571 | 27.19102 | 13643 ft | 302 kts | 197° |
| 2026-04-29 21:22 | 38.53549 | 27.18386 | 13298 ft | 302 kts | 197° |
| 2026-04-29 21:22 | 38.51522 | 27.17670 | 12976 ft | 301 kts | 197° |
| 2026-04-29 21:22 | 38.49506 | 27.16958 | 12644 ft | 300 kts | 197° |
| 2026-04-29 21:23 | 38.47499 | 27.16249 | 12333 ft | 298 kts | 197° |
| 2026-04-29 21:23 | 38.45497 | 27.15543 | 12020 ft | 297 kts | 197° |
| 2026-04-29 21:23 | 38.43536 | 27.14850 | 11699 ft | 296 kts | 197° |
| 2026-04-29 21:23 | 38.41547 | 27.14148 | 11377 ft | 296 kts | 197° |
| 2026-04-29 21:24 | 38.39563 | 27.13449 | 11056 ft | 296 kts | 197° |
| 2026-04-29 21:24 | 38.37583 | 27.12750 | 10749 ft | 295 kts | 196° |
| 2026-04-29 21:24 | 38.35607 | 27.12054 | 10446 ft | 294 kts | 196° |
| 2026-04-29 21:24 | 38.33637 | 27.11361 | 10215 ft | 291 kts | 196° |
| 2026-04-29 21:25 | 38.31711 | 27.10684 | 10080 ft | 284 kts | 196° |
| 2026-04-29 21:25 | 38.29914 | 27.10052 | 9884 ft | 280 kts | 196° |
| 2026-04-29 21:25 | 38.28037 | 27.09392 | 9573 ft | 280 kts | 196° |
| 2026-04-29 21:25 | 38.26161 | 27.08733 | 9289 ft | 279 kts | 196° |
| 2026-04-29 21:26 | 38.24316 | 27.08086 | 9160 ft | 271 kts | 196° |
| 2026-04-29 21:26 | 38.22542 | 27.07466 | 9031 ft | 264 kts | 194° |
| 2026-04-29 21:26 | 38.20696 | 27.07329 | 8569 ft | 269 kts | 168° |
| 2026-04-29 21:26 | 38.18894 | 27.07894 | 8048 ft | 273 kts | 165° |
| 2026-04-29 21:27 | 38.17023 | 27.08490 | 7423 ft | 281 kts | 165° |
| 2026-04-29 21:27 | 38.15136 | 27.09088 | 7008 ft | 278 kts | 165° |
| 2026-04-29 21:27 | 38.13266 | 27.09677 | 6640 ft | 275 kts | 165° |
| 2026-04-29 21:27 | 38.11419 | 27.10253 | 6274 ft | 272 kts | 165° |
| 2026-04-29 21:28 | 38.09601 | 27.10817 | 5919 ft | 266 kts | 166° |
| 2026-04-29 21:28 | 38.07817 | 27.11370 | 5603 ft | 261 kts | 165° |
| 2026-04-29 21:28 | 38.06065 | 27.11907 | 5271 ft | 257 kts | 165° |
| 2026-04-29 21:28 | 38.04335 | 27.12428 | 4962 ft | 253 kts | 165° |
| 2026-04-29 21:29 | 38.02630 | 27.12932 | 4648 ft | 250 kts | 165° |
| 2026-04-29 21:29 | 38.00952 | 27.13509 | 4329 ft | 249 kts | 153° |
| 2026-04-29 21:29 | 37.99633 | 27.14865 | 4049 ft | 244 kts | 121° |
| 2026-04-29 21:29 | 37.99083 | 27.16823 | 3850 ft | 234 kts | 89° |
| 2026-04-29 21:30 | 37.99428 | 27.18751 | 3720 ft | 222 kts | 58° |
| 2026-04-29 21:30 | 38.00511 | 27.20055 | 3571 ft | 213 kts | 24° |
| 2026-04-29 21:30 | 38.01919 | 27.20419 | 3570 ft | 204 kts | 4° |
| 2026-04-29 21:30 | 38.03321 | 27.20507 | 3519 ft | 197 kts | 4° |
| 2026-04-29 21:31 | 38.04643 | 27.20570 | 3516 ft | 190 kts | 3° |
| 2026-04-29 21:31 | 38.05966 | 27.20630 | 3502 ft | 190 kts | 3° |
| 2026-04-29 21:31 | 38.07285 | 27.20687 | 3502 ft | 189 kts | 3° |
| 2026-04-29 21:31 | 38.08602 | 27.20742 | 3503 ft | 190 kts | 3° |
| 2026-04-29 21:32 | 38.09910 | 27.20790 | 3489 ft | 186 kts | 4° |
| 2026-04-29 21:32 | 38.11186 | 27.20693 | 3510 ft | 182 kts | 356° |
| 2026-04-29 21:32 | 38.12452 | 27.20474 | 3496 ft | 183 kts | 352° |
| 2026-04-29 21:32 | 38.13695 | 27.20178 | 3495 ft | 180 kts | 352° |
| 2026-04-29 21:33 | 38.14913 | 27.19930 | 3476 ft | 174 kts | 353° |
| 2026-04-29 21:33 | 38.16078 | 27.19654 | 3499 ft | 167 kts | 350° |
| 2026-04-29 21:33 | 38.17188 | 27.19336 | 3497 ft | 160 kts | 349° |
| 2026-04-29 21:33 | 38.18261 | 27.19015 | 3488 ft | 160 kts | 349° |
| 2026-04-29 21:34 | 38.19356 | 27.18684 | 3488 ft | 162 kts | 349° |
| 2026-04-29 21:34 | 38.20445 | 27.18354 | 3499 ft | 160 kts | 349° |
| 2026-04-29 21:34 | 38.21530 | 27.18027 | 3493 ft | 160 kts | 349° |
| 2026-04-29 21:34 | 38.22623 | 27.17961 | 3477 ft | 161 kts | 21° |
| 2026-04-29 21:35 | 38.23601 | 27.18855 | 3495 ft | 183 kts | 50° |
| 2026-04-29 21:35 | 38.24204 | 27.20230 | 3479 ft | 177 kts | 79° |
| 2026-04-29 21:35 | 38.23994 | 27.21741 | 3502 ft | 180 kts | 120° |
| 2026-04-29 21:35 | 38.23057 | 27.22826 | 3516 ft | 187 kts | 148° |
| 2026-04-29 21:36 | 38.21902 | 27.23549 | 3505 ft | 186 kts | 152° |
| 2026-04-29 21:36 | 38.20715 | 27.24266 | 3497 ft | 186 kts | 152° |
| 2026-04-29 21:36 | 38.19543 | 27.24969 | 3498 ft | 186 kts | 152° |
| 2026-04-29 21:36 | 38.18387 | 27.25661 | 3495 ft | 186 kts | 152° |
| 2026-04-29 21:37 | 38.17217 | 27.26360 | 3501 ft | 185 kts | 152° |
| 2026-04-29 21:37 | 38.16050 | 27.27058 | 3510 ft | 186 kts | 152° |
| 2026-04-29 21:37 | 38.14873 | 27.27759 | 3504 ft | 187 kts | 153° |
| 2026-04-29 21:37 | 38.13603 | 27.28093 | 3482 ft | 190 kts | 188° |
| 2026-04-29 21:38 | 38.12455 | 27.27351 | 3501 ft | 189 kts | 229° |
| 2026-04-29 21:38 | 38.11944 | 27.25872 | 3499 ft | 183 kts | 269° |
| 2026-04-29 21:38 | 38.12052 | 27.24248 | 3500 ft | 187 kts | 292° |
| 2026-04-29 21:38 | 38.12813 | 27.22984 | 3485 ft | 179 kts | 324° |
| 2026-04-29 21:39 | 38.13627 | 27.21784 | 3424 ft | 183 kts | 306° |
| 2026-04-29 21:39 | 38.14516 | 27.20677 | 3347 ft | 178 kts | 327° |
| 2026-04-29 21:39 | 38.15594 | 27.19978 | 3269 ft | 176 kts | 345° |
| 2026-04-29 21:39 | 38.16761 | 27.19513 | 3156 ft | 172 kts | 346° |
| 2026-04-29 21:40 | 38.17887 | 27.19133 | 2959 ft | 162 kts | 348° |
| 2026-04-29 21:40 | 38.18957 | 27.18804 | 2808 ft | 157 kts | 348° |
| 2026-04-29 21:40 | 38.20021 | 27.18482 | 2613 ft | 157 kts | 348° |
| 2026-04-29 21:40 | 38.21097 | 27.18157 | 2301 ft | 160 kts | 348° |
| 2026-04-29 21:41 | 38.22173 | 27.17832 | 1971 ft | 158 kts | 347° |
| 2026-04-29 21:41 | 38.23231 | 27.17512 | 1640 ft | 155 kts | 347° |
| 2026-04-29 21:41 | 38.24273 | 27.17197 | 1308 ft | 154 kts | 347° |
| 2026-04-29 21:41 | 38.25313 | 27.16882 | 998 ft | 155 kts | 347° |
| 2026-04-29 21:42 | 38.26370 | 27.16556 | 703 ft | 157 kts | 348° |
| 2026-04-29 21:42 | 38.27449 | 27.16243 | 509 ft | 161 kts | 346° |
| 2026-04-29 21:42 | 38.28333 | 27.15974 | 416 ft | 155 kts | 345° |
| 2026-04-29 21:42 | 38.29231 | 27.15698 | 412 ft | 104 kts | 347° |
| 2026-04-29 21:43 | 38.29651 | 27.15570 | 415 ft | 18 kts | 345° |
| 2026-04-29 21:43 | 38.29739 | 27.15525 | 416 ft | 13 kts | 328° |
| 2026-04-29 21:43 | 38.29801 | 27.15467 | 418 ft | 10 kts | 320° |
| 2026-04-29 21:43 | 38.29854 | 27.15411 | 414 ft | 10 kts | 320° |
| 2026-04-29 21:44 | 38.29901 | 27.15349 | 411 ft | 10 kts | 314° |
| 2026-04-29 21:44 | 38.29948 | 27.15291 | 409 ft | 9 kts | 319° |
| 2026-04-29 21:44 | 38.29986 | 27.15228 | 410 ft | 9 kts | 281° |
| 2026-04-29 21:44 | 38.29975 | 27.15142 | 411 ft | 12 kts | 257° |
| 2026-04-29 21:45 | 38.29957 | 27.15041 | 410 ft | 9 kts | 256° |
| 2026-04-29 21:45 | 38.29933 | 27.14967 | 410 ft | 9 kts | 216° |
| 2026-04-29 21:45 | 38.29871 | 27.14971 | 410 ft | 9 kts | 167° |
| 2026-04-29 21:45 | 38.29811 | 27.14988 | 410 ft | 9 kts | 166° |
| 2026-04-29 21:46 | 38.29754 | 27.15006 | 410 ft | 8 kts | 166° |
| 2026-04-29 21:46 | 38.29709 | 27.15020 | 410 ft | 5 kts | 168° |
| 2026-04-29 21:46 | 38.29679 | 27.15002 | 407 ft | 5 kts | 231° |
| 2026-04-29 21:46 | 38.29669 | 27.14975 | 410 ft | 2 kts | 253° |
| 2026-04-29 21:47 | 38.29666 | 27.14959 | 410 ft | 2 kts | 258° |
| 2026-04-29 21:47 | 38.29664 | 27.14949 | 410 ft | 0 kts | 257° |